LFBPLFBT

Guest
Details From LFBP - Pau Pyrenees
To LFBT - Tarbes Ossun Lourdes
Flight Number -
Tags generated
Created
Modified
Stats Distance 25 nm / 47 km
Max Altitude 300 ft / 91 m
Waypoints 3
Social Downloads 0
Likes 0
Share VATSIM

Download

Looking for another format? Having issues loading an existing format? Contact us
Advertisement - Login to hide

Notes

Basic altitude profile: - Ascent Rate: 2500ft/min - Ascent Speed: 250kts - Cruise Altitude: 28000ft - Cruise Speed: 420kts - Descent Rate: 1500ft/min - Descent Speed: 250kts Options: - Use NATs: yes - Use PACOTS: yes - Use low airways: yes - Use high airways: yes

Route

LFBP OBUTO LFBT

ID Type Via Altitude Latitude Longitude Leg Dist Tot Dist Heading (true) Name
O LFBP APT - 0 ft / 0 m 43.38108˚ -0.42075˚ - 0 nm - Pau Pyrenees
OBUTO FIX - 300 ft / 91 m 43.15917˚ 0.02083˚ 23 nm 23 nm 124° / 125° -
O LFBT APT - 0 ft / 0 m 43.17864˚ -0.00634˚ 1 nm 25 nm 315° / 314° Tarbes Ossun Lourdes

Altitude Profile

Advertisement - Login to hide

LFBP

Details ICAO LFBP (PUF)
Name Pau Pyrenees
Region France
Timezone Europe/Paris (UTC+1.0)
Stats Elevation 616 ft / 188 m (AMSL)
Location 43.381078° -0.420752°
Runways 1
Magnetic Variation 0.094° E

METAR

LFBP 132230Z AUTO 27013G24KT 9999 OVC024 13/09 Q1017 TEMPO 3000 -RA

Decode

TAF

TAF LFBP 131700Z 1318/1418 24008KT 9999 BKN050 TEMPO 1318/1409 3000 -RA BKN025 TEMPO 1415/1418 4000 -RA BKN030 PROB30 TEMPO 1320/1324 27015G25KT

Decode

Departure Runways

ID Width Length Bearing (true) Bearing (mag) Surface Threshold Offset Overrun Length
13 148 ft / 45 m 8,191 ft / 2,497 m 125.89° 125.80° Asphalt 0 ft / 0 m 0 ft / 0 m
31 148 ft / 45 m 8,191 ft / 2,497 m 305.90° 305.81° Asphalt 0 ft / 0 m 0 ft / 0 m

LFBT

Details ICAO LFBT (LDE)
Name Tarbes Ossun Lourdes
Region France
Timezone Europe/Paris (UTC+1.0)
Stats Elevation 1,260 ft / 384 m (AMSL)
Location 43.178643° -0.006340°
Runways 1
Magnetic Variation 0.218° E

METAR

LFBT 132230Z AUTO 26014KT 9999 FEW013 BKN036 BKN052 13/09 Q1016 TEMPO 27015G25KT 3000 -RA

Decode

TAF

TAF LFBT 131700Z 1318/1418 26010KT 9999 SCT040 BKN050 TEMPO 1318/1409 3000 -RA BKN020 PROB30 TEMPO 1320/1405 27015G25KT

Decode

Destination Runways

ID Width Length Bearing (true) Bearing (mag) Surface Threshold Offset Overrun Length
02 148 ft / 45 m 9,847 ft / 3,001 m 20.26° 20.04° Asphalt 2,199 ft / 670 m 0 ft / 0 m
20 148 ft / 45 m 9,847 ft / 3,001 m 200.27° 200.05° Asphalt 0 ft / 0 m 0 ft / 0 m

Approach Navaids

Runway Type Ident Frequency Range Bearing (true) Bearing (mag) Slope Elevation
20 Localiser OS 109.50 MHz 18 nm / 33 km 200.27° 200.05° - 1,265 ft / 386 m (AMSL)
20 Glidescope OS 109.50 MHz 10 nm / 19 km 200.27° 200.05° 3.00° 1,265 ft / 386 m (AMSL)
20 DME OS 109.50 MHz 18 nm / 33 km - - - 1,217 ft / 371 m (AMSL)

Popular Alternatives